sensor_id;sensor_type;location;lat;lon;timestamp;P1;durP1;ratioP1;P2;durP2;ratioP2
61336;SDS011;47212;41.326;2.104;2022-10-23T00:03:08;8.70;;;3.30;;
61336;SDS011;47212;41.326;2.104;2022-10-23T00:08:10;7.07;;;3.53;;
61336;SDS011;47212;41.326;2.104;2022-10-23T00:13:12;7.45;;;3.85;;
61336;SDS011;47212;41.326;2.104;2022-10-23T00:18:14;6.65;;;3.20;;
61336;SDS011;47212;41.326;2.104;2022-10-23T00:23:16;10.93;;;7.20;;
61336;SDS011;47212;41.326;2.104;2022-10-23T00:28:18;8.05;;;5.45;;
61336;SDS011;47212;41.326;2.104;2022-10-23T00:33:20;7.05;;;3.72;;
61336;SDS011;47212;41.326;2.104;2022-10-23T00:38:22;5.72;;;3.35;;
61336;SDS011;47212;41.326;2.104;2022-10-23T00:43:25;9.07;;;3.63;;
61336;SDS011;47212;41.326;2.104;2022-10-23T00:48:29;5.97;;;3.00;;
61336;SDS011;47212;41.326;2.104;2022-10-23T00:53:31;6.82;;;3.55;;
61336;SDS011;47212;41.326;2.104;2022-10-23T00:58:39;6.68;;;3.72;;
61336;SDS011;47212;41.326;2.104;2022-10-23T01:05:11;9.70;;;3.97;;
61336;SDS011;47212;41.326;2.104;2022-10-23T01:10:36;9.48;;;3.80;;
61336;SDS011;47212;41.326;2.104;2022-10-23T01:21:08;7.78;;;3.03;;
61336;SDS011;47212;41.326;2.104;2022-10-23T01:37:44;6.30;;;3.00;;
61336;SDS011;47212;41.326;2.104;2022-10-23T01:42:52;10.57;;;8.25;;
61336;SDS011;47212;41.326;2.104;2022-10-23T01:48:14;8.93;;;7.32;;
61336;SDS011;47212;41.326;2.104;2022-10-23T01:53:20;8.52;;;4.53;;
61336;SDS011;47212;41.326;2.104;2022-10-23T01:58:23;6.03;;;3.10;;
61336;SDS011;47212;41.326;2.104;2022-10-23T02:03:27;5.10;;;2.42;;
61336;SDS011;47212;41.326;2.104;2022-10-23T02:08:33;7.60;;;2.88;;
61336;SDS011;47212;41.326;2.104;2022-10-23T02:19:09;10.38;;;6.20;;
61336;SDS011;47212;41.326;2.104;2022-10-23T02:24:19;8.55;;;4.70;;
61336;SDS011;47212;41.326;2.104;2022-10-23T02:29:37;10.35;;;4.22;;
61336;SDS011;47212;41.326;2.104;2022-10-23T02:34:53;7.93;;;3.53;;
61336;SDS011;47212;41.326;2.104;2022-10-23T02:39:56;6.63;;;3.40;;
61336;SDS011;47212;41.326;2.104;2022-10-23T03:07:21;9.35;;;3.72;;
61336;SDS011;47212;41.326;2.104;2022-10-23T03:12:32;6.75;;;4.18;;
61336;SDS011;47212;41.326;2.104;2022-10-23T03:17:34;6.85;;;3.33;;
61336;SDS011;47212;41.326;2.104;2022-10-23T03:22:37;5.45;;;3.20;;
61336;SDS011;47212;41.326;2.104;2022-10-23T03:27:49;12.13;;;3.92;;
61336;SDS011;47212;41.326;2.104;2022-10-23T03:32:51;4.50;;;2.80;;
61336;SDS011;47212;41.326;2.104;2022-10-23T03:37:55;4.25;;;2.20;;
61336;SDS011;47212;41.326;2.104;2022-10-23T03:43:02;6.88;;;3.20;;
61336;SDS011;47212;41.326;2.104;2022-10-23T03:48:05;5.63;;;2.60;;
61336;SDS011;47212;41.326;2.104;2022-10-23T03:53:09;9.43;;;3.33;;
61336;SDS011;47212;41.326;2.104;2022-10-23T03:58:14;6.53;;;2.65;;
61336;SDS011;47212;41.326;2.104;2022-10-23T04:03:24;5.78;;;2.63;;
61336;SDS011;47212;41.326;2.104;2022-10-23T04:08:26;4.65;;;2.53;;
61336;SDS011;47212;41.326;2.104;2022-10-23T04:13:28;7.88;;;3.15;;
61336;SDS011;47212;41.326;2.104;2022-10-23T04:18:31;9.75;;;3.22;;
61336;SDS011;47212;41.326;2.104;2022-10-23T04:23:38;7.00;;;3.08;;
61336;SDS011;47212;41.326;2.104;2022-10-23T04:28:53;5.93;;;3.10;;
61336;SDS011;47212;41.326;2.104;2022-10-23T04:33:55;6.22;;;2.60;;
61336;SDS011;47212;41.326;2.104;2022-10-23T04:39:05;7.05;;;3.13;;
61336;SDS011;47212;41.326;2.104;2022-10-23T04:44:12;7.93;;;2.65;;
61336;SDS011;47212;41.326;2.104;2022-10-23T04:49:16;6.40;;;2.92;;
61336;SDS011;47212;41.326;2.104;2022-10-23T04:54:22;4.93;;;2.50;;
61336;SDS011;47212;41.326;2.104;2022-10-23T04:59:47;7.15;;;2.80;;
61336;SDS011;47212;41.326;2.104;2022-10-23T05:04:58;5.78;;;2.70;;
61336;SDS011;47212;41.326;2.104;2022-10-23T05:10:20;6.20;;;2.60;;
61336;SDS011;47212;41.326;2.104;2022-10-23T05:15:35;6.50;;;2.72;;
61336;SDS011;47212;41.326;2.104;2022-10-23T05:20:38;6.10;;;2.72;;
61336;SDS011;47212;41.326;2.104;2022-10-23T05:25:44;5.55;;;2.83;;
61336;SDS011;47212;41.326;2.104;2022-10-23T05:30:51;5.55;;;3.00;;
61336;SDS011;47212;41.326;2.104;2022-10-23T05:36:00;5.90;;;3.20;;
61336;SDS011;47212;41.326;2.104;2022-10-23T05:41:07;6.00;;;2.75;;
61336;SDS011;47212;41.326;2.104;2022-10-23T05:46:10;5.65;;;3.20;;
61336;SDS011;47212;41.326;2.104;2022-10-23T05:51:35;5.78;;;3.20;;
61336;SDS011;47212;41.326;2.104;2022-10-23T05:56:56;5.30;;;3.15;;
61336;SDS011;47212;41.326;2.104;2022-10-23T06:02:29;7.40;;;3.28;;
61336;SDS011;47212;41.326;2.104;2022-10-23T06:07:39;5.03;;;3.17;;
61336;SDS011;47212;41.326;2.104;2022-10-23T06:12:44;5.80;;;3.22;;
61336;SDS011;47212;41.326;2.104;2022-10-23T06:17:51;7.70;;;3.70;;
61336;SDS011;47212;41.326;2.104;2022-10-23T06:22:54;6.10;;;3.25;;
61336;SDS011;47212;41.326;2.104;2022-10-23T06:28:18;7.10;;;3.70;;
61336;SDS011;47212;41.326;2.104;2022-10-23T06:33:22;8.05;;;3.90;;
61336;SDS011;47212;41.326;2.104;2022-10-23T06:38:24;10.82;;;4.03;;
61336;SDS011;47212;41.326;2.104;2022-10-23T06:43:29;9.68;;;4.30;;
61336;SDS011;47212;41.326;2.104;2022-10-23T06:48:49;8.10;;;3.90;;
61336;SDS011;47212;41.326;2.104;2022-10-23T06:53:59;14.27;;;3.97;;
61336;SDS011;47212;41.326;2.104;2022-10-23T06:59:49;7.18;;;3.60;;
61336;SDS011;47212;41.326;2.104;2022-10-23T07:05:03;11.63;;;4.20;;
61336;SDS011;47212;41.326;2.104;2022-10-23T07:10:13;8.88;;;3.70;;
61336;SDS011;47212;41.326;2.104;2022-10-23T07:15:22;13.85;;;6.35;;
61336;SDS011;47212;41.326;2.104;2022-10-23T07:20:30;17.02;;;8.15;;
61336;SDS011;47212;41.326;2.104;2022-10-23T07:25:33;14.90;;;7.78;;
61336;SDS011;47212;41.326;2.104;2022-10-23T07:30:36;15.05;;;7.50;;
61336;SDS011;47212;41.326;2.104;2022-10-23T07:35:44;16.90;;;6.75;;
61336;SDS011;47212;41.326;2.104;2022-10-23T07:40:57;14.90;;;6.93;;
61336;SDS011;47212;41.326;2.104;2022-10-23T07:46:00;11.50;;;5.22;;
61336;SDS011;47212;41.326;2.104;2022-10-23T07:51:11;8.90;;;5.35;;
61336;SDS011;47212;41.326;2.104;2022-10-23T07:56:24;9.68;;;5.20;;
61336;SDS011;47212;41.326;2.104;2022-10-23T08:01:49;11.98;;;5.60;;
61336;SDS011;47212;41.326;2.104;2022-10-23T08:07:04;11.55;;;5.75;;
61336;SDS011;47212;41.326;2.104;2022-10-23T08:12:16;22.13;;;7.00;;
61336;SDS011;47212;41.326;2.104;2022-10-23T08:17:24;18.20;;;7.65;;
61336;SDS011;47212;41.326;2.104;2022-10-23T08:22:51;20.13;;;9.18;;
61336;SDS011;47212;41.326;2.104;2022-10-23T08:28:02;19.65;;;8.20;;
61336;SDS011;47212;41.326;2.104;2022-10-23T08:33:14;13.75;;;8.38;;
61336;SDS011;47212;41.326;2.104;2022-10-23T08:38:18;17.60;;;8.80;;
61336;SDS011;47212;41.326;2.104;2022-10-23T08:59:59;16.30;;;9.23;;
61336;SDS011;47212;41.326;2.104;2022-10-23T09:16:15;9.50;;;4.47;;
61336;SDS011;47212;41.326;2.104;2022-10-23T09:21:40;11.48;;;4.75;;
61336;SDS011;47212;41.326;2.104;2022-10-23T09:26:52;9.68;;;4.55;;
61336;SDS011;47212;41.326;2.104;2022-10-23T09:31:56;14.13;;;4.35;;
61336;SDS011;47212;41.326;2.104;2022-10-23T09:37:03;10.00;;;4.90;;
61336;SDS011;47212;41.326;2.104;2022-10-23T09:47:26;14.63;;;4.78;;
61336;SDS011;47212;41.326;2.104;2022-10-23T09:57:39;12.57;;;5.97;;
61336;SDS011;47212;41.326;2.104;2022-10-23T10:02:59;13.65;;;5.88;;
61336;SDS011;47212;41.326;2.104;2022-10-23T10:13:38;16.45;;;6.95;;
61336;SDS011;47212;41.326;2.104;2022-10-23T10:18:58;13.55;;;7.55;;
61336;SDS011;47212;41.326;2.104;2022-10-23T10:24:58;14.82;;;7.05;;
61336;SDS011;47212;41.326;2.104;2022-10-23T10:30:14;16.80;;;8.40;;
61336;SDS011;47212;41.326;2.104;2022-10-23T10:40:50;22.80;;;12.77;;
61336;SDS011;47212;41.326;2.104;2022-10-23T10:46:23;15.38;;;8.93;;
61336;SDS011;47212;41.326;2.104;2022-10-23T10:57:18;11.82;;;5.57;;
61336;SDS011;47212;41.326;2.104;2022-10-23T11:02:45;14.27;;;6.25;;
61336;SDS011;47212;41.326;2.104;2022-10-23T11:07:55;12.90;;;6.28;;
61336;SDS011;47212;41.326;2.104;2022-10-23T11:13:03;14.77;;;6.63;;
61336;SDS011;47212;41.326;2.104;2022-10-23T11:18:15;18.08;;;6.38;;
61336;SDS011;47212;41.326;2.104;2022-10-23T11:34:38;13.65;;;7.75;;
61336;SDS011;47212;41.326;2.104;2022-10-23T11:39:40;17.85;;;8.00;;
61336;SDS011;47212;41.326;2.104;2022-10-23T11:44:46;18.13;;;6.97;;
61336;SDS011;47212;41.326;2.104;2022-10-23T11:55:27;10.45;;;5.45;;
61336;SDS011;47212;41.326;2.104;2022-10-23T12:00:34;10.40;;;5.00;;
61336;SDS011;47212;41.326;2.104;2022-10-23T12:05:58;15.48;;;5.28;;
61336;SDS011;47212;41.326;2.104;2022-10-23T12:11:28;12.35;;;4.68;;
61336;SDS011;47212;41.326;2.104;2022-10-23T12:16:49;13.38;;;4.78;;
61336;SDS011;47212;41.326;2.104;2022-10-23T12:22:20;14.90;;;5.32;;
61336;SDS011;47212;41.326;2.104;2022-10-23T12:33:14;12.95;;;4.90;;
61336;SDS011;47212;41.326;2.104;2022-10-23T12:38:45;17.35;;;5.60;;
61336;SDS011;47212;41.326;2.104;2022-10-23T12:44:32;14.82;;;4.88;;
61336;SDS011;47212;41.326;2.104;2022-10-23T12:49:37;19.27;;;5.38;;
61336;SDS011;47212;41.326;2.104;2022-10-23T12:54:50;17.30;;;5.45;;
61336;SDS011;47212;41.326;2.104;2022-10-23T13:00:03;15.50;;;5.05;;
61336;SDS011;47212;41.326;2.104;2022-10-23T13:05:16;13.50;;;4.90;;
61336;SDS011;47212;41.326;2.104;2022-10-23T13:10:24;19.97;;;5.20;;
61336;SDS011;47212;41.326;2.104;2022-10-23T13:15:38;12.68;;;4.90;;
61336;SDS011;47212;41.326;2.104;2022-10-23T13:26:05;17.13;;;5.13;;
61336;SDS011;47212;41.326;2.104;2022-10-23T13:31:52;14.40;;;4.47;;
61336;SDS011;47212;41.326;2.104;2022-10-23T13:37:02;10.20;;;4.03;;
61336;SDS011;47212;41.326;2.104;2022-10-23T13:42:31;15.35;;;4.78;;
61336;SDS011;47212;41.326;2.104;2022-10-23T13:47:35;14.43;;;4.15;;
61336;SDS011;47212;41.326;2.104;2022-10-23T13:52:37;17.65;;;4.50;;
61336;SDS011;47212;41.326;2.104;2022-10-23T13:57:39;12.77;;;4.50;;
61336;SDS011;47212;41.326;2.104;2022-10-23T14:02:42;17.70;;;4.38;;
61336;SDS011;47212;41.326;2.104;2022-10-23T14:07:46;11.73;;;3.97;;
61336;SDS011;47212;41.326;2.104;2022-10-23T14:12:55;20.70;;;4.82;;
61336;SDS011;47212;41.326;2.104;2022-10-23T14:17:57;9.57;;;3.67;;
61336;SDS011;47212;41.326;2.104;2022-10-23T14:23:03;13.10;;;4.10;;
61336;SDS011;47212;41.326;2.104;2022-10-23T14:28:14;10.35;;;3.83;;
61336;SDS011;47212;41.326;2.104;2022-10-23T14:33:22;9.50;;;3.85;;
61336;SDS011;47212;41.326;2.104;2022-10-23T14:38:33;10.95;;;3.65;;
61336;SDS011;47212;41.326;2.104;2022-10-23T14:43:42;17.63;;;4.65;;
61336;SDS011;47212;41.326;2.104;2022-10-23T14:48:51;20.02;;;5.07;;
61336;SDS011;47212;41.326;2.104;2022-10-23T14:54:03;12.75;;;3.95;;
61336;SDS011;47212;41.326;2.104;2022-10-23T14:59:07;12.13;;;4.18;;
61336;SDS011;47212;41.326;2.104;2022-10-23T15:04:23;14.73;;;4.07;;
61336;SDS011;47212;41.326;2.104;2022-10-23T15:09:29;12.77;;;4.80;;
61336;SDS011;47212;41.326;2.104;2022-10-23T15:14:49;13.15;;;4.68;;
61336;SDS011;47212;41.326;2.104;2022-10-23T15:19:54;18.80;;;4.50;;
61336;SDS011;47212;41.326;2.104;2022-10-23T15:24:59;11.45;;;4.15;;
61336;SDS011;47212;41.326;2.104;2022-10-23T15:30:12;12.93;;;3.83;;
61336;SDS011;47212;41.326;2.104;2022-10-23T15:35:16;11.95;;;4.53;;
61336;SDS011;47212;41.326;2.104;2022-10-23T15:40:20;15.85;;;4.57;;
61336;SDS011;47212;41.326;2.104;2022-10-23T15:45:23;13.70;;;5.40;;
61336;SDS011;47212;41.326;2.104;2022-10-23T15:50:33;13.33;;;4.30;;
61336;SDS011;47212;41.326;2.104;2022-10-23T15:55:41;15.50;;;4.75;;
61336;SDS011;47212;41.326;2.104;2022-10-23T16:00:47;12.95;;;4.47;;
61336;SDS011;47212;41.326;2.104;2022-10-23T16:05:52;20.27;;;6.28;;
61336;SDS011;47212;41.326;2.104;2022-10-23T16:10:57;16.85;;;6.75;;
61336;SDS011;47212;41.326;2.104;2022-10-23T16:16:03;16.13;;;6.43;;
61336;SDS011;47212;41.326;2.104;2022-10-23T16:21:21;17.20;;;6.68;;
61336;SDS011;47212;41.326;2.104;2022-10-23T16:26:26;16.45;;;5.68;;
61336;SDS011;47212;41.326;2.104;2022-10-23T16:31:31;19.90;;;5.47;;
61336;SDS011;47212;41.326;2.104;2022-10-23T16:36:40;20.50;;;6.07;;
61336;SDS011;47212;41.326;2.104;2022-10-23T16:42:06;14.70;;;5.53;;
61336;SDS011;47212;41.326;2.104;2022-10-23T16:47:31;13.57;;;5.72;;
61336;SDS011;47212;41.326;2.104;2022-10-23T16:52:36;22.02;;;5.65;;
61336;SDS011;47212;41.326;2.104;2022-10-23T16:57:40;15.93;;;5.47;;
61336;SDS011;47212;41.326;2.104;2022-10-23T17:02:51;17.25;;;6.25;;
61336;SDS011;47212;41.326;2.104;2022-10-23T17:07:53;15.65;;;6.68;;
61336;SDS011;47212;41.326;2.104;2022-10-23T17:12:55;15.18;;;6.25;;
61336;SDS011;47212;41.326;2.104;2022-10-23T17:17:57;14.57;;;5.28;;
61336;SDS011;47212;41.326;2.104;2022-10-23T17:22:59;17.25;;;5.78;;
61336;SDS011;47212;41.326;2.104;2022-10-23T17:28:02;9.82;;;5.22;;
61336;SDS011;47212;41.326;2.104;2022-10-23T17:33:09;20.98;;;6.43;;
61336;SDS011;47212;41.326;2.104;2022-10-23T17:38:13;20.17;;;5.93;;
61336;SDS011;47212;41.326;2.104;2022-10-23T17:43:19;10.23;;;4.35;;
61336;SDS011;47212;41.326;2.104;2022-10-23T17:48:24;10.88;;;5.07;;
61336;SDS011;47212;41.326;2.104;2022-10-23T17:53:28;32.35;;;17.80;;
61336;SDS011;47212;41.326;2.104;2022-10-23T17:58:32;20.98;;;7.55;;
61336;SDS011;47212;41.326;2.104;2022-10-23T18:03:35;14.95;;;5.95;;
61336;SDS011;47212;41.326;2.104;2022-10-23T18:08:47;18.98;;;6.15;;
61336;SDS011;47212;41.326;2.104;2022-10-23T18:13:50;17.00;;;5.28;;
61336;SDS011;47212;41.326;2.104;2022-10-23T18:18:59;12.57;;;5.50;;
61336;SDS011;47212;41.326;2.104;2022-10-23T18:24:02;13.77;;;5.80;;
61336;SDS011;47212;41.326;2.104;2022-10-23T18:29:06;23.02;;;6.18;;
61336;SDS011;47212;41.326;2.104;2022-10-23T18:34:19;11.40;;;5.10;;
61336;SDS011;47212;41.326;2.104;2022-10-23T18:39:24;17.38;;;5.85;;
61336;SDS011;47212;41.326;2.104;2022-10-23T18:44:36;11.32;;;4.30;;
61336;SDS011;47212;41.326;2.104;2022-10-23T18:49:38;16.77;;;4.95;;
61336;SDS011;47212;41.326;2.104;2022-10-23T18:54:43;15.60;;;5.00;;
61336;SDS011;47212;41.326;2.104;2022-10-23T18:59:46;16.63;;;5.68;;
61336;SDS011;47212;41.326;2.104;2022-10-23T19:05:15;13.50;;;5.28;;
61336;SDS011;47212;41.326;2.104;2022-10-23T19:10:21;9.10;;;3.90;;
61336;SDS011;47212;41.326;2.104;2022-10-23T19:15:28;8.65;;;3.75;;
61336;SDS011;47212;41.326;2.104;2022-10-23T19:20:37;9.07;;;4.70;;
61336;SDS011;47212;41.326;2.104;2022-10-23T19:25:42;18.83;;;6.45;;
61336;SDS011;47212;41.326;2.104;2022-10-23T19:30:45;8.02;;;4.43;;
61336;SDS011;47212;41.326;2.104;2022-10-23T19:35:48;6.45;;;3.80;;
61336;SDS011;47212;41.326;2.104;2022-10-23T19:41:02;16.05;;;6.95;;
61336;SDS011;47212;41.326;2.104;2022-10-23T19:46:15;17.65;;;7.00;;
61336;SDS011;47212;41.326;2.104;2022-10-23T19:51:26;7.90;;;4.78;;
61336;SDS011;47212;41.326;2.104;2022-10-23T19:56:34;11.52;;;5.60;;
61336;SDS011;47212;41.326;2.104;2022-10-23T20:01:46;11.68;;;5.22;;
61336;SDS011;47212;41.326;2.104;2022-10-23T20:06:55;16.00;;;5.55;;
61336;SDS011;47212;41.326;2.104;2022-10-23T20:11:59;12.50;;;5.15;;
61336;SDS011;47212;41.326;2.104;2022-10-23T20:17:20;14.57;;;5.20;;
61336;SDS011;47212;41.326;2.104;2022-10-23T20:22:26;16.33;;;5.70;;
61336;SDS011;47212;41.326;2.104;2022-10-23T20:27:29;25.73;;;7.20;;
61336;SDS011;47212;41.326;2.104;2022-10-23T20:32:32;14.55;;;6.32;;
61336;SDS011;47212;41.326;2.104;2022-10-23T20:37:35;14.38;;;6.07;;
61336;SDS011;47212;41.326;2.104;2022-10-23T20:42:37;12.07;;;5.75;;
61336;SDS011;47212;41.326;2.104;2022-10-23T20:47:39;14.95;;;6.03;;
61336;SDS011;47212;41.326;2.104;2022-10-23T20:52:48;12.57;;;5.53;;
61336;SDS011;47212;41.326;2.104;2022-10-23T20:57:51;15.13;;;8.38;;
61336;SDS011;47212;41.326;2.104;2022-10-23T21:02:56;18.77;;;7.63;;
61336;SDS011;47212;41.326;2.104;2022-10-23T21:08:01;20.52;;;7.93;;
61336;SDS011;47212;41.326;2.104;2022-10-23T21:13:03;17.30;;;6.88;;
61336;SDS011;47212;41.326;2.104;2022-10-23T21:18:05;19.80;;;7.00;;
61336;SDS011;47212;41.326;2.104;2022-10-23T21:23:34;17.05;;;8.63;;
61336;SDS011;47212;41.326;2.104;2022-10-23T21:28:38;18.77;;;7.47;;
61336;SDS011;47212;41.326;2.104;2022-10-23T21:33:56;18.23;;;6.82;;
61336;SDS011;47212;41.326;2.104;2022-10-23T21:38:59;17.60;;;7.47;;
61336;SDS011;47212;41.326;2.104;2022-10-23T21:44:05;12.40;;;5.00;;
61336;SDS011;47212;41.326;2.104;2022-10-23T21:49:17;21.40;;;6.63;;
61336;SDS011;47212;41.326;2.104;2022-10-23T21:54:22;17.48;;;6.07;;
61336;SDS011;47212;41.326;2.104;2022-10-23T21:59:31;7.72;;;4.30;;
61336;SDS011;47212;41.326;2.104;2022-10-23T22:04:39;21.70;;;7.05;;
61336;SDS011;47212;41.326;2.104;2022-10-23T22:09:52;10.70;;;4.82;;
61336;SDS011;47212;41.326;2.104;2022-10-23T22:14:56;11.98;;;5.63;;
61336;SDS011;47212;41.326;2.104;2022-10-23T22:20:01;9.13;;;5.15;;
61336;SDS011;47212;41.326;2.104;2022-10-23T22:25:08;13.35;;;5.07;;
61336;SDS011;47212;41.326;2.104;2022-10-23T22:30:24;15.05;;;6.72;;
61336;SDS011;47212;41.326;2.104;2022-10-23T22:35:39;18.80;;;9.88;;
61336;SDS011;47212;41.326;2.104;2022-10-23T22:40:44;15.73;;;7.35;;
61336;SDS011;47212;41.326;2.104;2022-10-23T22:45:48;10.27;;;5.30;;
61336;SDS011;47212;41.326;2.104;2022-10-23T22:50:57;9.45;;;5.00;;
61336;SDS011;47212;41.326;2.104;2022-10-23T22:56:04;11.23;;;5.20;;
61336;SDS011;47212;41.326;2.104;2022-10-23T23:01:23;9.68;;;4.80;;
61336;SDS011;47212;41.326;2.104;2022-10-23T23:06:34;9.13;;;4.60;;
61336;SDS011;47212;41.326;2.104;2022-10-23T23:11:38;13.45;;;5.10;;
61336;SDS011;47212;41.326;2.104;2022-10-23T23:16:54;10.93;;;5.10;;
61336;SDS011;47212;41.326;2.104;2022-10-23T23:22:03;15.90;;;6.47;;
61336;SDS011;47212;41.326;2.104;2022-10-23T23:27:07;16.15;;;6.35;;
61336;SDS011;47212;41.326;2.104;2022-10-23T23:32:12;18.52;;;7.38;;
61336;SDS011;47212;41.326;2.104;2022-10-23T23:37:20;9.13;;;4.68;;
61336;SDS011;47212;41.326;2.104;2022-10-23T23:42:28;13.02;;;6.00;;
61336;SDS011;47212;41.326;2.104;2022-10-23T23:47:34;16.00;;;6.78;;
61336;SDS011;47212;41.326;2.104;2022-10-23T23:52:37;13.50;;;5.97;;
61336;SDS011;47212;41.326;2.104;2022-10-23T23:57:41;20.92;;;10.07;;
